Brohman, Michigan
Current Conditions -  °F | °C
As of 2:55 AM on Saturday 01 Nov 2014 (Local Time) from KRQB Reporting Station
Overcast Overcast  
Wind Chill: 22°   Ceiling: 3000
Heat Index: 28°   Visibility: 10mi
Dew Point: 22°   Wind: 6mph
Humidity: 77%   Direction: 10°N
Pressure: 30.32"   Gusts: NA
Location:  43.69°N, 85.82°W
Report Text: KRQB 010655Z AUTO 01005KT 10SM OVC030 M02/M06 A3032 RMK AO2 T10211057
Loading
Personal Weather Stations






























Interactive Weather Map
Tropical Storm Tracking
New forecast layout! Learn more

10-Day Weather Forecast

Advertisements
Track Severe Weather on mobile